»·PEaware :: ASA1003 KBOI-KSEA

ASA1003 :: KBOI-KSEA

FLIGHT INFORMATION

Flight Status: Arrived
Operator:
Alaska Airlines
More flights by this operator :: More flights under this callsign
Pilot: Chandler S. (807)
Aircraft: BOEING 737-900
(B739)
More flights by this aircraft type
Origin: KBOI Boise Air Terminal/Gowen
United States
Destination: KSEA Seattle-Tacoma Intl
United States
More flights between these airports :: More routes between these airports
Route: BOI3 BOI OLAAH PREIS PDT CHINS5
File this flight plan on PilotEdge
Remarks:
Altitude:
(Current/Filed)
34,000ft
Speed:
(Current/Filed)
400kts
Departed: 18-Sep-23 01:35 PM
Arrived: 18-Sep-23 02:39 PM
Distance/Time
Traveled:
346nm/1:03
Distance/Time
To Go:
Arrived

Flight Plot

Page will automatically refresh every two minutes.

Flight plan parsing failed; only flown route is shown


Map Options




Map Legend


Flown Route
Filed Route
Departure Airport
Arrival Airport
Navaid (VOR, NDB)
Fix

Horizontal Profiles

Position Reports

Time Latitude Longitude Heading Altitude Ground
Speed
18-Sep-23 13:09 43.567244 -116.222875 85 2880ft 0kts
18-Sep-23 13:10 43.567244 -116.222875 85 2880ft 0kts
18-Sep-23 13:11 43.567244 -116.222875 85 2880ft 0kts
18-Sep-23 13:12 43.567244 -116.222875 85 2880ft 0kts
18-Sep-23 13:13 43.567244 -116.222875 85 2880ft 0kts
18-Sep-23 13:14 43.567244 -116.222875 85 2880ft 0kts
18-Sep-23 13:15 43.567244 -116.222875 85 2880ft 0kts
18-Sep-23 13:16 43.567244 -116.222875 85 2880ft 0kts
18-Sep-23 13:17 43.567244 -116.222875 85 2880ft 0kts
18-Sep-23 13:18 43.567244 -116.222875 85 2880ft 0kts
18-Sep-23 13:19 43.567244 -116.222875 85 2880ft 0kts
18-Sep-23 13:20 43.567244 -116.222875 85 2880ft 0kts
18-Sep-23 13:21 43.567244 -116.222875 85 2880ft 0kts
18-Sep-23 13:22 43.567244 -116.222875 85 2880ft 0kts
18-Sep-23 13:23 43.567244 -116.222875 85 2880ft 0kts
18-Sep-23 13:24 43.567302 -116.223201 174 2880ft 2kts
18-Sep-23 13:25 43.567471 -116.223162 205 2880ft 0kts
18-Sep-23 13:26 43.567471 -116.223162 205 2880ft 0kts
18-Sep-23 13:27 43.567471 -116.223162 205 2880ft 0kts
18-Sep-23 13:28 43.567099 -116.223363 188 2880ft 7kts
18-Sep-23 13:29 43.565821 -116.220498 115 2880ft 13kts
18-Sep-23 13:30 43.564296 -116.216028 114 2880ft 12kts
18-Sep-23 13:31 43.562612 -116.211121 115 2881ft 17kts
18-Sep-23 13:32 43.560354 -116.204463 115 2880ft 18kts
18-Sep-23 13:33 43.558732 -116.202931 241 2881ft 11kts
18-Sep-23 13:34 43.569481 -116.234312 295 3363ft 167kts
18-Sep-23 13:35 43.588576 -116.302880 290 5154ft 230kts
18-Sep-23 13:36 43.612957 -116.392550 290 7096ft 268kts
18-Sep-23 13:37 43.665707 -116.459773 334 10285ft 287kts
18-Sep-23 13:38 43.749346 -116.506018 333 12149ft 339kts
18-Sep-23 13:39 43.838778 -116.555973 333 14783ft 354kts
18-Sep-23 13:40 43.931982 -116.608351 333 17309ft 369kts
18-Sep-23 13:41 44.028733 -116.662918 333 19560ft 382kts
18-Sep-23 13:42 44.127082 -116.723024 322 21723ft 387kts
18-Sep-23 13:43 44.210450 -116.818900 310 23717ft 393kts
18-Sep-23 13:44 44.289068 -116.927686 311 25433ft 402kts
18-Sep-23 13:45 44.369526 -117.038667 312 27052ft 412kts
18-Sep-23 13:46 44.452165 -117.153009 312 28578ft 422kts
18-Sep-23 13:47 44.536030 -117.269505 312 30431ft 421kts
18-Sep-23 13:48 44.618913 -117.385154 311 32015ft 419kts
18-Sep-23 13:49 44.701274 -117.500590 311 33494ft 417kts
18-Sep-23 13:50 44.783462 -117.616306 311 34034ft 420kts
18-Sep-23 13:51 44.864923 -117.731421 310 34061ft 418kts
18-Sep-23 13:52 44.948682 -117.850438 310 34058ft 437kts
18-Sep-23 13:53 45.035197 -117.973755 310 34020ft 442kts
18-Sep-23 13:54 45.121529 -118.097379 310 34017ft 441kts
18-Sep-23 13:55 45.207216 -118.220686 309 34028ft 439kts
18-Sep-23 13:56 45.292974 -118.344667 309 34042ft 438kts
18-Sep-23 13:57 45.377898 -118.468013 308 34045ft 437kts
18-Sep-23 13:58 45.462890 -118.592020 308 34022ft 438kts
18-Sep-23 13:59 45.547678 -118.716297 308 33998ft 438kts
18-Sep-23 14:00 45.632788 -118.841631 308 33994ft 438kts
18-Sep-23 14:01 45.716544 -118.967139 305 33994ft 435kts
18-Sep-23 14:02 45.793990 -119.099164 304 33964ft 432kts
18-Sep-23 14:03 45.871292 -119.230832 304 33963ft 431kts
18-Sep-23 14:04 45.948592 -119.362456 304 33969ft 431kts
18-Sep-23 14:05 46.025869 -119.494704 304 33957ft 434kts
18-Sep-23 14:06 46.103843 -119.628779 305 33942ft 437kts
18-Sep-23 14:07 46.180688 -119.761422 305 33912ft 411kts
18-Sep-23 14:08 46.252927 -119.886960 306 33106ft 410kts
18-Sep-23 14:09 46.324458 -120.011615 307 31157ft 393kts
18-Sep-23 14:10 46.392867 -120.131440 308 29406ft 373kts
18-Sep-23 14:11 46.457845 -120.245737 308 27274ft 354kts
18-Sep-23 14:12 46.517242 -120.350650 308 25585ft 324kts
18-Sep-23 14:13 46.574069 -120.451770 306 23944ft 321kts
18-Sep-23 14:14 46.625890 -120.560150 303 22653ft 333kts
18-Sep-23 14:15 46.677679 -120.669374 303 21409ft 320kts
18-Sep-23 14:16 46.727590 -120.774515 303 20219ft 314kts
18-Sep-23 14:17 46.779874 -120.885035 303 19059ft 334kts
18-Sep-23 14:18 46.832265 -120.996200 303 17800ft 330kts
18-Sep-23 14:19 46.883137 -121.104527 302 16455ft 314kts
18-Sep-23 14:20 46.932483 -121.210147 302 15308ft 316kts
18-Sep-23 14:21 46.981416 -121.315206 301 14164ft 310kts
18-Sep-23 14:22 47.029295 -121.418418 301 12995ft 300kts
18-Sep-23 14:23 47.075325 -121.517943 301 11992ft 278kts
18-Sep-23 14:24 47.117045 -121.608545 301 11093ft 272kts
18-Sep-23 14:25 47.134328 -121.713082 275 10153ft 265kts
18-Sep-23 14:26 47.139960 -121.822179 275 8927ft 270kts
18-Sep-23 14:27 47.135058 -121.930113 260 7735ft 264kts
18-Sep-23 14:28 47.121903 -122.034478 259 6470ft 249kts
18-Sep-23 14:29 47.110270 -122.131123 260 5162ft 239kts
18-Sep-23 14:30 47.117075 -122.221010 285 4989ft 211kts
18-Sep-23 14:31 47.152838 -122.281689 325 4620ft 204kts
18-Sep-23 14:32 47.201960 -122.309104 354 4039ft 194kts
18-Sep-23 14:33 47.255672 -122.309578 358 3177ft 188kts
18-Sep-23 14:34 47.307864 -122.309120 358 2481ft 181kts
18-Sep-23 14:35 47.356774 -122.308691 358 1840ft 169kts
18-Sep-23 14:36 47.398521 -122.308322 0 1011ft 135kts
18-Sep-23 14:37 47.435312 -122.308013 359 425ft 126kts
18-Sep-23 14:38 47.445714 -122.306581 114 426ft 5kts
18-Sep-23 14:39 47.445854 -122.305448 359 422ft 17kts
18-Sep-23 14:40 47.447973 -122.303543 39 431ft 0kts
18-Sep-23 14:41 47.448077 -122.303413 40 426ft 0kts
18-Sep-23 14:42 47.448077 -122.303413 40 426ft 0kts
18-Sep-23 14:43 47.448077 -122.303413 40 426ft 0kts
18-Sep-23 14:44 47.448077 -122.303413 40 426ft 0kts

Navigation Log

Ident Type
Flight plan parsing failed, navigation log unavailable